Time;durP1;ratioP1;P1;durP2;ratioP2;P2;SDS_P1;SDS_P2;PMS_P1;PMS_P2;Temp;Humidity;BMP_temperature;BMP_pressure;BME280_temperature;BME280_humidity;BME280_pressure;Samples;Min_cycle;Max_cycle;Signal;HPM_P1;HPM_P2
2021/09/12 00:01:03;;;;;;;5.32;4.75;;;;;;;;;;5034419;28;20030;-59
2021/09/12 00:03:31;;;;;;;5.88;4.82;;;;;;;;;;5034999;28;20486;-58
2021/09/12 00:05:57;;;;;;;4.10;3.70;;;;;;;;;;5035045;28;20033;-59
2021/09/12 00:08:23;;;;;;;5.28;4.25;;;;;;;;;;5034586;28;20034;-59
2021/09/12 00:10:49;;;;;;;8.70;4.38;;;;;;;;;;5034558;28;20095;-58
2021/09/12 00:13:15;;;;;;;6.40;4.50;;;;;;;;;;5016717;28;20475;-59
2021/09/12 00:15:42;;;;;;;5.82;4.13;;;;;;;;;;5016811;28;20385;-58
2021/09/12 00:18:08;;;;;;;5.80;5.30;;;;;;;;;;5034246;28;20029;-59
2021/09/12 00:20:37;;;;;;;5.32;4.80;;;;;;;;;;5034245;28;20030;-59
2021/09/12 00:23:03;;;;;;;13.82;5.30;;;;;;;;;;5034661;28;20040;-58
2021/09/12 00:25:29;;;;;;;5.20;3.53;;;;;;;;;;5034277;28;20022;-58
2021/09/12 00:27:55;;;;;;;4.65;3.65;;;;;;;;;;5034183;28;20112;-59
2021/09/12 00:30:21;;;;;;;4.95;4.45;;;;;;;;;;5016464;28;20033;-58
2021/09/12 00:32:47;;;;;;;8.85;4.05;;;;;;;;;;5017193;28;20204;-58
2021/09/12 00:35:13;;;;;;;5.35;4.45;;;;;;;;;;5016945;28;20137;-59
2021/09/12 00:37:40;;;;;;;6.70;5.22;;;;;;;;;;5034349;28;20100;-59
2021/09/12 00:40:07;;;;;;;6.38;4.93;;;;;;;;;;5033930;28;20077;-59
2021/09/12 00:42:33;;;;;;;5.25;4.63;;;;;;;;;;5033819;28;20037;-58
2021/09/12 00:44:59;;;;;;;5.50;4.93;;;;;;;;;;5033974;28;20061;-58
2021/09/12 00:47:25;;;;;;;11.00;4.45;;;;;;;;;;5034146;28;20163;-58
2021/09/12 00:49:51;;;;;;;7.45;4.78;;;;;;;;;;5033938;28;20025;-59
2021/09/12 00:52:18;;;;;;;6.03;5.03;;;;;;;;;;5034209;28;20035;-58
2021/09/12 00:54:44;;;;;;;5.10;4.60;;;;;;;;;;5033482;28;20535;-59
2021/09/12 00:57:13;;;;;;;6.43;4.90;;;;;;;;;;5033719;28;20076;-59
2021/09/12 00:59:40;;;;;;;5.07;4.63;;;;;;;;;;5033681;28;20022;-58
2021/09/12 01:02:09;;;;;;;5.95;3.58;;;;;;;;;;5016550;28;20048;-58
2021/09/12 01:04:36;;;;;;;6.07;5.40;;;;;;;;;;5033600;28;20025;-58
2021/09/12 01:07:05;;;;;;;5.72;4.55;;;;;;;;;;5033684;28;20485;-58
2021/09/12 01:09:34;;;;;;;5.03;4.47;;;;;;;;;;5016732;28;20383;-58
2021/09/12 01:12:00;;;;;;;7.10;4.35;;;;;;;;;;5016519;28;20129;-59
2021/09/12 01:14:27;;;;;;;6.22;4.78;;;;;;;;;;5016155;28;20036;-58
2021/09/12 01:16:53;;;;;;;6.35;4.50;;;;;;;;;;5015790;28;20025;-58
2021/09/12 01:19:20;;;;;;;4.70;3.75;;;;;;;;;;5015965;28;20117;-58
2021/09/12 01:21:46;;;;;;;5.80;4.13;;;;;;;;;;5033953;28;20033;-58
2021/09/12 01:24:12;;;;;;;7.65;4.45;;;;;;;;;;5033452;28;20105;-58
2021/09/12 01:26:38;;;;;;;4.97;4.18;;;;;;;;;;5033169;28;20021;-58
2021/09/12 01:29:04;;;;;;;5.63;4.90;;;;;;;;;;5033147;28;20076;-58
2021/09/12 01:31:32;;;;;;;8.25;4.70;;;;;;;;;;5033334;28;20053;-59
2021/09/12 01:33:59;;;;;;;7.53;5.38;;;;;;;;;;5033461;28;20025;-58
2021/09/12 01:36:29;;;;;;;6.05;4.65;;;;;;;;;;5016213;28;20416;-59
2021/09/12 01:38:56;;;;;;;6.65;5.35;;;;;;;;;;5033302;28;20037;-59
2021/09/12 01:41:22;;;;;;;8.15;5.20;;;;;;;;;;5034025;28;20033;-59
2021/09/12 01:43:52;;;;;;;5.93;4.50;;;;;;;;;;5033807;28;20468;-59
2021/09/12 01:46:18;;;;;;;6.43;5.82;;;;;;;;;;5015857;28;20022;-59
2021/09/12 01:48:45;;;;;;;5.03;4.43;;;;;;;;;;5015581;28;20426;-59
2021/09/12 01:51:14;;;;;;;5.22;4.72;;;;;;;;;;5015284;28;20064;-59
2021/09/12 01:53:40;;;;;;;4.88;4.28;;;;;;;;;;5033583;28;20030;-59
2021/09/12 01:56:07;;;;;;;5.70;4.00;;;;;;;;;;5035812;28;20025;-59
2021/09/12 01:58:33;;;;;;;6.25;5.65;;;;;;;;;;5037270;28;20028;-59
2021/09/12 02:00:59;;;;;;;4.65;4.18;;;;;;;;;;5036956;28;20108;-59
2021/09/12 02:03:25;;;;;;;7.03;4.85;;;;;;;;;;5019794;28;20021;-59
2021/09/12 02:05:51;;;;;;;5.45;4.88;;;;;;;;;;5019168;28;20022;-59
2021/09/12 02:08:17;;;;;;;5.45;4.90;;;;;;;;;;5019365;28;20164;-58
2021/09/12 02:10:43;;;;;;;5.22;4.15;;;;;;;;;;5036402;28;20032;-59
2021/09/12 02:13:10;;;;;;;4.78;4.25;;;;;;;;;;5037008;28;20046;-58
2021/09/12 02:15:36;;;;;;;4.35;3.78;;;;;;;;;;5037498;28;20343;-58
2021/09/12 02:18:02;;;;;;;5.80;4.72;;;;;;;;;;5036494;28;20025;-58
2021/09/12 02:20:28;;;;;;;7.03;5.05;;;;;;;;;;5018786;28;20030;-58
2021/09/12 02:22:54;;;;;;;5.53;4.28;;;;;;;;;;5019713;28;20498;-59
2021/09/12 02:25:20;;;;;;;7.50;4.45;;;;;;;;;;5036604;28;20029;-59
2021/09/12 02:27:46;;;;;;;6.40;4.80;;;;;;;;;;5036487;28;20085;-58
2021/09/12 02:30:12;;;;;;;5.05;4.32;;;;;;;;;;5018701;28;20068;-58
2021/09/12 02:32:38;;;;;;;6.15;4.05;;;;;;;;;;5036616;28;20018;-59
2021/09/12 02:35:05;;;;;;;7.60;4.63;;;;;;;;;;5018221;28;20373;-59
2021/09/12 02:37:30;;;;;;;6.40;4.72;;;;;;;;;;5036264;28;20021;-59
2021/09/12 02:39:56;;;;;;;5.22;3.97;;;;;;;;;;5018492;28;20030;-59
2021/09/12 02:42:25;;;;;;;4.95;3.85;;;;;;;;;;5036801;28;20036;-59
2021/09/12 02:44:51;;;;;;;4.40;4.00;;;;;;;;;;5036294;28;20030;-58
2021/09/12 02:47:17;;;;;;;5.97;4.32;;;;;;;;;;5018626;28;20025;-58
2021/09/12 02:49:43;;;;;;;5.53;3.72;;;;;;;;;;5036336;28;20021;-58
2021/09/12 02:52:09;;;;;;;5.10;4.50;;;;;;;;;;5036409;28;20053;-58
2021/09/12 02:54:35;;;;;;;6.53;3.92;;;;;;;;;;5035948;28;20037;-58
2021/09/12 02:57:01;;;;;;;5.05;4.45;;;;;;;;;;5036010;28;20018;-59
2021/09/12 02:59:27;;;;;;;6.15;4.40;;;;;;;;;;5019157;28;20030;-58
2021/09/12 03:01:53;;;;;;;4.80;3.75;;;;;;;;;;5035910;28;20021;-58
2021/09/12 03:04:19;;;;;;;4.68;4.22;;;;;;;;;;5018041;28;20067;-58
2021/09/12 03:06:45;;;;;;;5.38;4.68;;;;;;;;;;5001430;28;20049;-58
2021/09/12 03:09:11;;;;;;;10.02;4.03;;;;;;;;;;5036088;28;20030;-59
2021/09/12 03:11:37;;;;;;;6.63;4.35;;;;;;;;;;5017977;28;20033;-58
2021/09/12 03:14:03;;;;;;;5.65;4.80;;;;;;;;;;5036878;28;20061;-58
2021/09/12 03:16:29;;;;;;;6.32;4.13;;;;;;;;;;5018106;28;20534;-58
2021/09/12 03:18:55;;;;;;;5.55;4.20;;;;;;;;;;5035836;28;20026;-58
2021/09/12 03:21:21;;;;;;;6.15;4.75;;;;;;;;;;5035609;28;20029;-59
2021/09/12 03:23:47;;;;;;;4.93;4.45;;;;;;;;;;5018270;28;20041;-58
2021/09/12 03:26:13;;;;;;;7.18;5.03;;;;;;;;;;5018501;28;20053;-59
2021/09/12 03:28:39;;;;;;;5.15;4.65;;;;;;;;;;5017763;28;20033;-59
2021/09/12 03:31:05;;;;;;;5.53;4.57;;;;;;;;;;5035636;28;20030;-58
2021/09/12 03:33:32;;;;;;;5.55;4.18;;;;;;;;;;5035505;28;20423;-59
2021/09/12 03:35:58;;;;;;;5.32;4.07;;;;;;;;;;5035644;28;20021;-58
2021/09/12 03:38:24;;;;;;;6.95;4.80;;;;;;;;;;5018332;28;20025;-58
2021/09/12 03:40:51;;;;;;;5.60;4.32;;;;;;;;;;5017644;28;20026;-58
2021/09/12 03:43:17;;;;;;;5.82;3.92;;;;;;;;;;5035185;28;20463;-58
2021/09/12 03:45:43;;;;;;;6.35;4.65;;;;;;;;;;5035096;28;20025;-58
2021/09/12 03:48:09;;;;;;;5.72;4.75;;;;;;;;;;5017076;28;20140;-58
2021/09/12 03:50:35;;;;;;;5.25;3.78;;;;;;;;;;5034965;28;20087;-58
2021/09/12 03:53:02;;;;;;;4.65;4.13;;;;;;;;;;5035009;28;20029;-58
2021/09/12 03:55:28;;;;;;;9.05;4.55;;;;;;;;;;5017751;28;20026;-58
2021/09/12 03:57:54;;;;;;;6.13;4.03;;;;;;;;;;5017162;28;20128;-58
2021/09/12 04:00:23;;;;;;;5.05;4.00;;;;;;;;;;5017565;28;20032;-58
2021/09/12 04:02:49;;;;;;;10.35;4.05;;;;;;;;;;5035414;28;20029;-58
2021/09/12 04:05:15;;;;;;;6.03;4.65;;;;;;;;;;5017485;28;20646;-58
2021/09/12 04:07:41;;;;;;;6.85;4.70;;;;;;;;;;5034471;28;20112;-58
2021/09/12 04:10:08;;;;;;;6.88;4.32;;;;;;;;;;5034251;28;20041;-58
2021/09/12 04:12:34;;;;;;;5.10;3.90;;;;;;;;;;5035052;28;20049;-58
2021/09/12 04:15:00;;;;;;;6.40;4.40;;;;;;;;;;5034517;28;20496;-58
2021/09/12 04:17:26;;;;;;;6.80;3.83;;;;;;;;;;5016905;28;20026;-58
2021/09/12 04:19:52;;;;;;;5.45;3.85;;;;;;;;;;5017193;28;20032;-58
2021/09/12 04:22:18;;;;;;;5.15;4.38;;;;;;;;;;5017354;28;20053;-58
2021/09/12 04:24:47;;;;;;;3.85;3.35;;;;;;;;;;5034388;28;20079;-58
2021/09/12 04:27:15;;;;;;;4.82;3.83;;;;;;;;;;5016891;28;20033;-58
2021/09/12 04:29:41;;;;;;;9.23;3.83;;;;;;;;;;5016827;28;20112;-59
2021/09/12 04:32:08;;;;;;;7.00;4.63;;;;;;;;;;5034479;28;20139;-59
2021/09/12 04:34:34;;;;;;;6.55;4.40;;;;;;;;;;5034233;28;20100;-58
2021/09/12 04:37:02;;;;;;;4.82;4.25;;;;;;;;;;5034678;28;20032;-59
2021/09/12 04:39:28;;;;;;;5.22;4.05;;;;;;;;;;5034119;28;20026;-59
2021/09/12 04:41:54;;;;;;;4.78;3.78;;;;;;;;;;5017129;28;20508;-58
2021/09/12 04:44:20;;;;;;;4.60;3.72;;;;;;;;;;5034883;28;20060;-59
2021/09/12 04:46:46;;;;;;;5.47;3.85;;;;;;;;;;5034522;28;20029;-59
2021/09/12 04:49:12;;;;;;;5.57;4.07;;;;;;;;;;5016283;28;20024;-59
2021/09/12 04:51:38;;;;;;;4.93;4.20;;;;;;;;;;5016786;28;20064;-58
2021/09/12 04:54:04;;;;;;;7.20;4.82;;;;;;;;;;5034192;28;20345;-59
2021/09/12 04:56:39;;;;;;;4.70;4.28;;;;;;;;;;5033824;28;20120;-59
2021/09/12 04:59:05;;;;;;;6.28;4.85;;;;;;;;;;5033880;28;20076;-58
2021/09/12 05:01:32;;;;;;;4.75;3.92;;;;;;;;;;5015793;28;20025;-59
2021/09/12 05:03:58;;;;;;;6.15;5.07;;;;;;;;;;5033652;28;20047;-59
2021/09/12 05:06:24;;;;;;;8.95;4.32;;;;;;;;;;5033723;28;20037;-58
2021/09/12 05:08:50;;;;;;;4.63;3.90;;;;;;;;;;5016052;28;20076;-59
2021/09/12 05:11:16;;;;;;;5.55;4.95;;;;;;;;;;5033388;28;20030;-58
2021/09/12 05:13:42;;;;;;;11.35;4.90;;;;;;;;;;5002726;28;20484;-59
2021/09/12 05:16:11;;;;;;;5.40;4.18;;;;;;;;;;5013846;28;20029;-59
2021/09/12 05:18:37;;;;;;;4.43;4.03;;;;;;;;;;5014377;28;20030;-59
2021/09/12 05:21:03;;;;;;;8.50;4.93;;;;;;;;;;4996243;28;20353;-58
2021/09/12 05:23:29;;;;;;;5.93;4.57;;;;;;;;;;5013908;28;20037;-59
2021/09/12 05:25:55;;;;;;;8.05;4.53;;;;;;;;;;5014344;28;20408;-59
2021/09/12 05:28:24;;;;;;;9.23;4.75;;;;;;;;;;5013800;28;20029;-59
2021/09/12 05:30:50;;;;;;;5.22;4.68;;;;;;;;;;5017795;28;20034;-59
2021/09/12 05:33:16;;;;;;;5.45;4.35;;;;;;;;;;5017798;28;20371;-59
2021/09/12 05:35:45;;;;;;;6.95;5.00;;;;;;;;;;5018467;28;20026;-59
2021/09/12 05:38:11;;;;;;;5.50;4.80;;;;;;;;;;5017766;28;20511;-59
2021/09/12 05:40:37;;;;;;;4.60;3.67;;;;;;;;;;5017594;28;20109;-59
2021/09/12 05:43:03;;;;;;;4.80;4.32;;;;;;;;;;5000071;28;20068;-59
2021/09/12 05:45:29;;;;;;;5.70;5.00;;;;;;;;;;5017534;28;20109;-59
2021/09/12 05:47:55;;;;;;;6.07;4.75;;;;;;;;;;5017591;28;20054;-58
2021/09/12 05:50:21;;;;;;;5.32;4.18;;;;;;;;;;5000136;28;20030;-58
2021/09/12 05:52:47;;;;;;;5.43;4.50;;;;;;;;;;5000216;28;20026;-58
2021/09/12 05:55:13;;;;;;;4.95;4.45;;;;;;;;;;5000016;28;20029;-58
2021/09/12 05:57:39;;;;;;;7.80;4.50;;;;;;;;;;5017330;28;20452;-58
2021/09/12 06:00:06;;;;;;;4.60;3.88;;;;;;;;;;5017212;28;20034;-58
2021/09/12 06:02:32;;;;;;;4.63;3.45;;;;;;;;;;5016525;28;20037;-58
2021/09/12 06:05:02;;;;;;;8.85;3.67;;;;;;;;;;5000447;28;20050;-58
2021/09/12 06:07:28;;;;;;;4.55;3.90;;;;;;;;;;4999611;28;20022;-58
2021/09/12 06:09:55;;;;;;;5.43;4.15;;;;;;;;;;5017634;28;20452;-59
2021/09/12 06:12:21;;;;;;;4.75;3.50;;;;;;;;;;5000944;28;20037;-58
2021/09/12 06:14:47;;;;;;;4.93;3.83;;;;;;;;;;5037384;28;20140;-58
2021/09/12 06:17:13;;;;;;;4.50;4.07;;;;;;;;;;5036444;28;20061;-58
2021/09/12 06:19:39;;;;;;;7.88;4.65;;;;;;;;;;5018937;28;20416;-58
2021/09/12 06:22:06;;;;;;;13.07;4.53;;;;;;;;;;5036998;28;20423;-59
2021/09/12 06:24:32;;;;;;;5.55;4.28;;;;;;;;;;5019120;28;20536;-58
2021/09/12 06:26:58;;;;;;;5.82;4.55;;;;;;;;;;5036411;28;20099;-58
2021/09/12 06:29:24;;;;;;;5.45;4.95;;;;;;;;;;5036135;28;20030;-58
2021/09/12 06:31:50;;;;;;;8.68;4.63;;;;;;;;;;5018579;28;20085;-59
2021/09/12 06:34:16;;;;;;;7.00;5.28;;;;;;;;;;5036394;28;20032;-58
2021/09/12 06:36:42;;;;;;;4.70;4.18;;;;;;;;;;5036314;28;20079;-58
2021/09/12 06:39:08;;;;;;;6.25;5.50;;;;;;;;;;5036623;28;20037;-58
2021/09/12 06:41:34;;;;;;;6.93;5.85;;;;;;;;;;5035417;28;20419;-58
2021/09/12 06:44:00;;;;;;;5.75;5.15;;;;;;;;;;5019060;28;20530;-57
2021/09/12 06:46:27;;;;;;;4.88;4.38;;;;;;;;;;5036277;28;20375;-58
2021/09/12 06:48:53;;;;;;;6.18;5.35;;;;;;;;;;5019004;28;20148;-58
2021/09/12 06:51:19;;;;;;;8.32;5.38;;;;;;;;;;5036137;28;20494;-58
2021/09/12 06:53:45;;;;;;;7.28;5.80;;;;;;;;;;5036326;28;20048;-58
2021/09/12 06:56:11;;;;;;;10.48;5.95;;;;;;;;;;5018172;28;20022;-58
2021/09/12 06:58:37;;;;;;;10.75;6.43;;;;;;;;;;5018745;28;20033;-58
2021/09/12 07:01:03;;;;;;;7.70;6.82;;;;;;;;;;5035447;28;20471;-58
2021/09/12 07:03:29;;;;;;;6.55;5.55;;;;;;;;;;5001000;28;20068;-58
2021/09/12 07:05:58;;;;;;;7.32;6.05;;;;;;;;;;5035671;28;20026;-58
2021/09/12 07:08:24;;;;;;;7.28;6.50;;;;;;;;;;5035618;28;20068;-58
2021/09/12 07:10:50;;;;;;;8.63;6.78;;;;;;;;;;5035285;28;20029;-58
2021/09/12 07:13:16;;;;;;;7.10;6.00;;;;;;;;;;5035545;28;20458;-58
2021/09/12 07:15:41;;;;;;;6.15;5.30;;;;;;;;;;5035600;28;20029;-58
2021/09/12 07:18:07;;;;;;;7.43;5.40;;;;;;;;;;5017570;28;20025;-58
2021/09/12 07:20:34;;;;;;;7.93;5.72;;;;;;;;;;5035816;28;20037;-58
2021/09/12 07:23:01;;;;;;;7.28;5.93;;;;;;;;;;5017487;28;20053;-57
2021/09/12 07:25:30;;;;;;;7.20;4.80;;;;;;;;;;5035481;28;20022;-58
2021/09/12 07:27:57;;;;;;;7.30;6.47;;;;;;;;;;5016952;28;20471;-58
2021/09/12 07:30:23;;;;;;;5.78;5.18;;;;;;;;;;5035266;28;20029;-58
2021/09/12 07:32:50;;;;;;;7.30;6.60;;;;;;;;;;5034898;28;20034;-58
2021/09/12 07:35:16;;;;;;;10.85;7.00;;;;;;;;;;5035227;28;20022;-58
2021/09/12 07:37:42;;;;;;;8.95;6.40;;;;;;;;;;5035461;28;20031;-57
2021/09/12 07:40:09;;;;;;;7.25;6.03;;;;;;;;;;5017819;28;20087;-58
2021/09/12 07:42:35;;;;;;;7.05;5.72;;;;;;;;;;5035698;28;20116;-58
2021/09/12 07:45:01;;;;;;;6.78;6.10;;;;;;;;;;5017904;28;20063;-58
2021/09/12 07:47:27;;;;;;;5.63;4.85;;;;;;;;;;5035841;28;20092;-58
2021/09/12 07:49:55;;;;;;;5.25;4.75;;;;;;;;;;5017621;28;20029;-58
2021/09/12 07:52:24;;;;;;;6.65;5.88;;;;;;;;;;5017154;28;20088;-58
2021/09/12 07:54:53;;;;;;;5.88;5.28;;;;;;;;;;5035316;28;20030;-58
2021/09/12 07:57:19;;;;;;;5.65;4.97;;;;;;;;;;5017425;28;20371;-58
2021/09/12 07:59:45;;;;;;;5.40;4.53;;;;;;;;;;5034527;28;20029;-58
2021/09/12 08:02:24;;;;;;;6.45;5.03;;;;;;;;;;5034481;28;20079;-58
2021/09/12 08:04:50;;;;;;;6.22;4.95;;;;;;;;;;4999664;28;20041;-58
2021/09/12 08:07:16;;;;;;;7.25;4.45;;;;;;;;;;5035318;28;20364;-58
2021/09/12 08:09:42;;;;;;;4.53;4.07;;;;;;;;;;5016946;28;20518;-58
2021/09/12 08:12:08;;;;;;;5.10;4.57;;;;;;;;;;5016774;28;20459;-58
2021/09/12 08:14:37;;;;;;;7.03;5.05;;;;;;;;;;5016749;28;20044;-58
2021/09/12 08:17:14;;;;;;;6.25;4.43;;;;;;;;;;5035341;28;20021;-58
2021/09/12 08:19:46;;;;;;;5.70;4.55;;;;;;;;;;5035122;28;20021;-59
2021/09/12 08:22:12;;;;;;;5.25;4.30;;;;;;;;;;5017691;28;20345;-62
2021/09/12 08:24:38;;;;;;;5.10;4.07;;;;;;;;;;5016717;28;20029;-59
2021/09/12 08:27:04;;;;;;;7.70;4.28;;;;;;;;;;5034135;28;20036;-60
2021/09/12 08:29:30;;;;;;;6.30;4.53;;;;;;;;;;5017182;28;20029;-58
2021/09/12 08:31:57;;;;;;;5.03;4.13;;;;;;;;;;5016682;28;20475;-58
2021/09/12 08:34:24;;;;;;;5.07;4.43;;;;;;;;;;5034841;28;20021;-58
2021/09/12 08:36:50;;;;;;;5.20;4.07;;;;;;;;;;5034343;28;20104;-58
2021/09/12 08:39:16;;;;;;;5.47;3.63;;;;;;;;;;5034086;28;20080;-60
2021/09/12 08:41:45;;;;;;;4.60;3.88;;;;;;;;;;5034105;28;20025;-58
2021/09/12 08:44:16;;;;;;;4.30;3.78;;;;;;;;;;5000682;28;20026;-58
2021/09/12 08:46:43;;;;;;;4.75;3.53;;;;;;;;;;5016227;28;20108;-58
2021/09/12 08:49:09;;;;;;;5.05;3.92;;;;;;;;;;5034307;28;20026;-58
2021/09/12 08:51:35;;;;;;;4.93;3.22;;;;;;;;;;5016723;28;20120;-58
2021/09/12 08:54:01;;;;;;;3.85;3.15;;;;;;;;;;5016807;28;20029;-58
2021/09/12 08:56:29;;;;;;;5.03;3.55;;;;;;;;;;5034056;28;20364;-59
2021/09/12 08:58:55;;;;;;;3.85;3.13;;;;;;;;;;5033800;28;20021;-58
2021/09/12 09:01:31;;;;;;;8.80;3.60;;;;;;;;;;5033908;28;20112;-58
2021/09/12 09:03:59;;;;;;;4.05;2.53;;;;;;;;;;5033698;28;20029;-58
2021/09/12 09:06:32;;;;;;;3.60;3.03;;;;;;;;;;5033720;28;20019;-59
2021/09/12 09:09:02;;;;;;;4.00;3.15;;;;;;;;;;5016238;28;20028;-58
2021/09/12 09:11:29;;;;;;;4.80;2.40;;;;;;;;;;5016975;28;20100;-58
2021/09/12 09:13:55;;;;;;;4.82;2.95;;;;;;;;;;5033656;28;20136;-59
2021/09/12 09:16:28;;;;;;;3.67;2.75;;;;;;;;;;5033661;28;20032;-59
2021/09/12 09:19:03;;;;;;;4.45;3.20;;;;;;;;;;5008784;28;20388;-59
2021/09/12 09:21:33;;;;;;;4.20;2.95;;;;;;;;;;5033289;28;20041;-59
2021/09/12 09:24:06;;;;;;;4.43;3.08;;;;;;;;;;5033728;28;20025;-59
2021/09/12 09:26:38;;;;;;;3.72;3.05;;;;;;;;;;5033530;28;20034;-59
2021/09/12 09:29:04;;;;;;;5.93;3.95;;;;;;;;;;5016311;28;20032;-59
2021/09/12 09:31:30;;;;;;;5.05;2.90;;;;;;;;;;5016383;28;20025;-59
2021/09/12 09:34:02;;;;;;;3.55;2.80;;;;;;;;;;5033363;28;20022;-59
2021/09/12 09:36:34;;;;;;;3.60;3.15;;;;;;;;;;5000735;28;20418;-58
2021/09/12 09:39:06;;;;;;;4.35;3.13;;;;;;;;;;5014416;28;20030;-58
2021/09/12 09:41:39;;;;;;;2.78;2.28;;;;;;;;;;5033556;28;20032;-58
2021/09/12 09:44:13;;;;;;;4.28;2.80;;;;;;;;;;5015997;28;20025;-58
2021/09/12 09:46:40;;;;;;;3.17;2.53;;;;;;;;;;5015369;28;20021;-58
2021/09/12 09:49:19;;;;;;;3.25;2.83;;;;;;;;;;5015354;28;20025;-58
2021/09/12 09:51:50;;;;;;;2.90;2.45;;;;;;;;;;5033374;28;20053;-58
2021/09/12 09:54:20;;;;;;;3.88;3.17;;;;;;;;;;5034023;28;20455;-58
2021/09/12 09:56:47;;;;;;;5.70;3.58;;;;;;;;;;5033279;28;20034;-58
2021/09/12 09:59:17;;;;;;;3.83;2.90;;;;;;;;;;5033191;28;20026;-58
2021/09/12 10:01:50;;;;;;;3.55;2.78;;;;;;;;;;5033067;28;20143;-58
2021/09/12 10:04:16;;;;;;;4.32;3.58;;;;;;;;;;5015887;28;20172;-58
2021/09/12 10:06:43;;;;;;;4.05;3.17;;;;;;;;;;5015474;28;20022;-57
2021/09/12 10:09:12;;;;;;;3.50;2.88;;;;;;;;;;5015886;28;20022;-58
2021/09/12 10:11:42;;;;;;;3.03;2.65;;;;;;;;;;5033045;28;20061;-58
2021/09/12 10:14:10;;;;;;;4.17;3.10;;;;;;;;;;5032659;28;20055;-58
2021/09/12 10:16:36;;;;;;;3.90;2.85;;;;;;;;;;5034790;28;20280;-58
2021/09/12 10:19:02;;;;;;;3.67;3.05;;;;;;;;;;5036788;28;20025;-58
2021/09/12 10:21:30;;;;;;;5.03;2.72;;;;;;;;;;5019494;28;20341;-59
2021/09/12 10:24:02;;;;;;;5.10;2.67;;;;;;;;;;5036715;28;20021;-59
2021/09/12 10:26:29;;;;;;;4.13;2.65;;;;;;;;;;5037280;28;20057;-59
2021/09/12 10:28:55;;;;;;;3.53;2.28;;;;;;;;;;5019176;28;20025;-60
2021/09/12 10:31:27;;;;;;;5.00;2.47;;;;;;;;;;5036464;28;20022;-60
2021/09/12 10:34:03;;;;;;;3.33;2.50;;;;;;;;;;5036500;28;20021;-59
2021/09/12 10:36:30;;;;;;;3.88;2.50;;;;;;;;;;5018698;28;20022;-59
2021/09/12 10:38:56;;;;;;;3.45;2.78;;;;;;;;;;5018574;28;20431;-60
2021/09/12 10:41:22;;;;;;;3.13;2.53;;;;;;;;;;5036259;28;20025;-60
2021/09/12 10:43:49;;;;;;;3.72;2.63;;;;;;;;;;5036518;28;20030;-59
2021/09/12 10:46:15;;;;;;;3.22;2.13;;;;;;;;;;5036313;28;20022;-59
2021/09/12 10:48:41;;;;;;;3.70;2.30;;;;;;;;;;5036208;28;20029;-59
2021/09/12 10:51:07;;;;;;;4.03;2.80;;;;;;;;;;5036680;28;20459;-59
2021/09/12 10:53:42;;;;;;;3.45;2.28;;;;;;;;;;5036375;28;20106;-60
2021/09/12 10:56:08;;;;;;;3.88;2.25;;;;;;;;;;5036354;28;20026;-59
2021/09/12 10:58:34;;;;;;;3.83;2.47;;;;;;;;;;5036601;28;20022;-59
2021/09/12 11:01:02;;;;;;;5.75;2.10;;;;;;;;;;5001914;28;20037;-59
2021/09/12 11:03:28;;;;;;;3.47;1.90;;;;;;;;;;5035864;28;20123;-59
2021/09/12 11:05:54;;;;;;;2.65;1.98;;;;;;;;;;5035845;28;20021;-59
2021/09/12 11:08:20;;;;;;;2.63;1.83;;;;;;;;;;5035811;28;20516;-60
2021/09/12 11:10:51;;;;;;;2.95;2.25;;;;;;;;;;5035768;28;20061;-57
2021/09/12 11:13:26;;;;;;;5.50;2.67;;;;;;;;;;5035714;28;20057;-58
2021/09/12 11:15:56;;;;;;;4.05;2.45;;;;;;;;;;5035673;28;20534;-58
2021/09/12 11:18:22;;;;;;;3.90;2.70;;;;;;;;;;5035803;28;20025;-58
2021/09/12 11:20:49;;;;;;;3.83;2.08;;;;;;;;;;5018073;28;20033;-58
2021/09/12 11:23:35;;;;;;;2.80;1.90;;;;;;;;;;5036130;28;20025;-58
2021/09/12 11:26:01;;;;;;;2.75;1.63;;;;;;;;;;5035903;28;20324;-58
2021/09/12 11:28:29;;;;;;;3.90;2.03;;;;;;;;;;5035947;28;20018;-58
2021/09/12 11:30:56;;;;;;;2.63;1.70;;;;;;;;;;5035993;28;20116;-58
2021/09/12 11:33:22;;;;;;;3.15;2.20;;;;;;;;;;5035406;28;20029;-58
2021/09/12 11:35:58;;;;;;;2.42;1.80;;;;;;;;;;5035855;28;20022;-58
2021/09/12 11:38:26;;;;;;;4.15;2.42;;;;;;;;;;5035326;28;20021;-58
2021/09/12 11:40:55;;;;;;;2.47;1.70;;;;;;;;;;5017790;28;20021;-58
2021/09/12 11:43:21;;;;;;;2.58;1.75;;;;;;;;;;5017603;28;20061;-59
2021/09/12 11:46:02;;;;;;;2.70;1.95;;;;;;;;;;5035192;28;20502;-58
2021/09/12 11:48:28;;;;;;;4.35;2.08;;;;;;;;;;5035327;28;20032;-58
2021/09/12 11:50:55;;;;;;;2.35;1.48;;;;;;;;;;5035423;28;20359;-58
2021/09/12 11:53:25;;;;;;;5.90;1.80;;;;;;;;;;5035435;28;20033;-58
2021/09/12 11:55:51;;;;;;;3.55;2.08;;;;;;;;;;5035254;28;20025;-58
2021/09/12 11:58:18;;;;;;;4.13;1.75;;;;;;;;;;5034989;28;20017;-58
2021/09/12 12:00:50;;;;;;;4.32;2.08;;;;;;;;;;5034857;28;20026;-58
2021/09/12 12:03:17;;;;;;;2.75;1.80;;;;;;;;;;5035242;28;20028;-59
2021/09/12 12:05:44;;;;;;;3.88;1.65;;;;;;;;;;5034687;28;20029;-59
2021/09/12 12:08:14;;;;;;;3.60;1.70;;;;;;;;;;5017138;28;20021;-58
2021/09/12 12:10:44;;;;;;;2.40;1.92;;;;;;;;;;5034879;28;20033;-59
2021/09/12 12:14:08;;;;;;;;;;;;;;;;;;;;;
2021/09/12 12:16:26;;;;;;;2.63;1.83;;;;;;;;;;5012617;28;20069;-59
2021/09/12 12:19:12;;;;;;;2.92;1.70;;;;;;;;;;5016818;28;20022;-58
2021/09/12 12:22:00;;;;;;;4.30;1.70;;;;;;;;;;5016823;28;20512;-59
2021/09/12 12:24:25;;;;;;;3.08;1.90;;;;;;;;;;5033789;28;20044;-59
2021/09/12 12:27:02;;;;;;;2.35;1.50;;;;;;;;;;5017617;28;20025;-59
2021/09/12 12:29:30;;;;;;;2.47;1.70;;;;;;;;;;5017223;28;20041;-59
2021/09/12 12:32:00;;;;;;;2.60;1.80;;;;;;;;;;5034475;28;20026;-58
2021/09/12 12:34:37;;;;;;;3.03;1.65;;;;;;;;;;5034267;28;20045;-59
2021/09/12 12:37:04;;;;;;;2.80;1.70;;;;;;;;;;5034846;28;20092;-59
2021/09/12 12:39:30;;;;;;;3.13;1.58;;;;;;;;;;5034370;28;20365;-59
2021/09/12 12:41:56;;;;;;;1.95;1.50;;;;;;;;;;5034428;28;20371;-59
2021/09/12 12:44:23;;;;;;;2.80;1.83;;;;;;;;;;5016961;28;20112;-59
2021/09/12 12:46:49;;;;;;;2.50;1.67;;;;;;;;;;5034006;28;20025;-59
2021/09/12 12:49:22;;;;;;;2.63;1.50;;;;;;;;;;5033901;28;20048;-58
2021/09/12 12:52:02;;;;;;;2.95;1.90;;;;;;;;;;5033864;28;20037;-58
2021/09/12 12:54:31;;;;;;;2.13;1.48;;;;;;;;;;5034166;28;20471;-58
2021/09/12 12:56:57;;;;;;;3.22;1.85;;;;;;;;;;5033883;28;20112;-59
2021/09/12 12:59:23;;;;;;;2.72;1.60;;;;;;;;;;5034262;28;20021;-59
2021/09/12 13:01:51;;;;;;;2.95;2.03;;;;;;;;;;5016136;28;20033;-59
2021/09/12 13:04:18;;;;;;;2.60;1.92;;;;;;;;;;5033934;28;20477;-58
2021/09/12 13:06:44;;;;;;;2.05;1.50;;;;;;;;;;5034608;28;20341;-58
2021/09/12 13:09:10;;;;;;;2.47;1.58;;;;;;;;;;5034337;28;20087;-59
2021/09/12 13:11:39;;;;;;;2.65;1.65;;;;;;;;;;5033456;28;20033;-59
2021/09/12 13:14:05;;;;;;;2.35;1.42;;;;;;;;;;5034255;28;20048;-59
2021/09/12 13:16:31;;;;;;;2.65;1.30;;;;;;;;;;5033391;28;20096;-58
2021/09/12 13:18:57;;;;;;;2.70;1.60;;;;;;;;;;5033557;28;20048;-58
2021/09/12 13:21:23;;;;;;;2.78;1.80;;;;;;;;;;5016132;28;20033;-59
2021/09/12 13:23:49;;;;;;;2.60;1.38;;;;;;;;;;5033931;28;20418;-58
2021/09/12 13:26:15;;;;;;;2.20;1.65;;;;;;;;;;5033622;28;20026;-58
2021/09/12 13:28:41;;;;;;;5.65;1.77;;;;;;;;;;5033557;28;20028;-59
2021/09/12 13:31:07;;;;;;;3.40;1.67;;;;;;;;;;5034063;28;20092;-59
2021/09/12 13:33:33;;;;;;;2.95;1.75;;;;;;;;;;5033510;28;20032;-59
2021/09/12 13:36:00;;;;;;;4.15;2.00;;;;;;;;;;5033489;28;20460;-60
2021/09/12 13:38:26;;;;;;;1.98;1.30;;;;;;;;;;5033413;28;20029;-59
2021/09/12 13:40:52;;;;;;;2.40;1.67;;;;;;;;;;5033114;28;20025;-59
2021/09/12 13:43:22;;;;;;;2.42;1.40;;;;;;;;;;5034005;28;20371;-59
2021/09/12 13:45:48;;;;;;;3.88;1.42;;;;;;;;;;5033352;28;20353;-59
2021/09/12 13:48:14;;;;;;;2.45;1.52;;;;;;;;;;5033687;28;20037;-59
2021/09/12 13:50:40;;;;;;;2.80;1.77;;;;;;;;;;5035371;28;20029;-60
2021/09/12 13:53:06;;;;;;;3.22;1.85;;;;;;;;;;5037388;28;20105;-60
2021/09/12 13:55:35;;;;;;;4.00;1.58;;;;;;;;;;5038009;28;20023;-60
2021/09/12 13:58:01;;;;;;;2.80;1.83;;;;;;;;;;5037008;28;20559;-59
2021/09/12 14:00:27;;;;;;;3.80;1.98;;;;;;;;;;5037021;28;20033;-60
2021/09/12 14:02:54;;;;;;;3.50;1.92;;;;;;;;;;5020055;28;20056;-60
2021/09/12 14:05:20;;;;;;;4.28;1.63;;;;;;;;;;5037580;28;20025;-60
2021/09/12 14:07:46;;;;;;;3.03;1.73;;;;;;;;;;5037331;28;20523;-60
2021/09/12 14:10:12;;;;;;;3.35;2.45;;;;;;;;;;5037559;28;20029;-59
2021/09/12 14:12:38;;;;;;;3.17;1.77;;;;;;;;;;5018911;28;20041;-59
2021/09/12 14:15:05;;;;;;;2.80;1.85;;;;;;;;;;5003155;28;20025;-59
2021/09/12 14:17:31;;;;;;;2.50;1.70;;;;;;;;;;5018771;28;20055;-59
2021/09/12 14:19:57;;;;;;;1.75;1.25;;;;;;;;;;5036982;28;20017;-59
2021/09/12 14:22:23;;;;;;;2.60;1.50;;;;;;;;;;5037153;28;20448;-59
2021/09/12 14:24:49;;;;;;;3.45;2.20;;;;;;;;;;5036764;28;20112;-59
2021/09/12 14:27:15;;;;;;;2.78;1.95;;;;;;;;;;5036512;28;20068;-59
2021/09/12 14:29:41;;;;;;;4.15;2.03;;;;;;;;;;5036284;28;20022;-59
2021/09/12 14:32:07;;;;;;;3.55;1.83;;;;;;;;;;5036466;28;20021;-59
2021/09/12 14:34:37;;;;;;;3.30;1.77;;;;;;;;;;5037532;28;20352;-59
2021/09/12 14:37:03;;;;;;;2.20;1.60;;;;;;;;;;5036414;28;20065;-59
2021/09/12 14:39:29;;;;;;;2.75;1.52;;;;;;;;;;5036439;28;20036;-59
2021/09/12 14:41:55;;;;;;;2.80;1.77;;;;;;;;;;5036649;28;20036;-59
2021/09/12 14:44:21;;;;;;;2.65;1.92;;;;;;;;;;5036346;28;20452;-59